Yangze 10 — D5LK6 — position and weather

sailwx.info

Track history (hours):
 
Tides and Currents Weather Stations Pressure Air Temp Water Temp Dewpoint Dewpoint Depression Visibility Wind Speed Wind Dir Waves Ship Positions

Yangze 10

Last reported at 2017-Oct-31 21:20 UTC. Time now 2017-Nov-20 07:57 UTC.
Position N 38°14' W 030°26'.
Warning: this ship's position is 19 days out of date.

Length 229 m; draft 8.8 m.

Type: Cargo ship. MMSI: 636017533.

Date/timePositionNaut miles runAvg speedWind from/ knotsBaromVisibWave heightAir tempDewpointWater temp
2017-Oct-31 21:20N 38°14' W 030°26'310.2
2017-Oct-31 21:00N 38°16' W 030°23'510.3
2017-Oct-31 20:30N 38°19' W 030°18'510.3
2017-Oct-31 20:01N 38°23' W 030°13'510.0
2017-Oct-31 19:30N 38°26' W 030°08'5 9.9
2017-Oct-31 19:00N 38°29' W 030°03'5 9.8
2017-Oct-31 18:29N 38°32' W 029°58'5 9.9
2017-Oct-31 18:00N 38°36' W 029°53'510.1
2017-Oct-31 17:30N 38°39' W 029°49'5 9.9
2017-Oct-31 17:01N 38°42' W 029°44'5 9.9
2017-Oct-31 16:30N 38°45' W 029°39'510.1
2017-Oct-31 16:00N 38°48' W 029°34'510.2
2017-Oct-31 15:30N 38°52' W 029°29'510.1
2017-Oct-31 15:00N 38°55' W 029°23'510.0
2017-Oct-31 14:30N 38°58' W 029°18'510.0
2017-Oct-31 14:00N 39°00' W 029°13'510.0
2017-Oct-31 13:30N 39°03' W 029°08'510.1
2017-Oct-31 13:00N 39°06' W 029°02'510.8
2017-Oct-31 12:31N 39°09' W 028°56'611.0
2017-Oct-31 12:00N 39°12' W 028°50'611.1
2017-Oct-31 11:30N 39°15' W 028°44'611.1
2017-Oct-31 11:00N 39°18' W 028°38'611.0
2017-Oct-31 10:30N 39°21' W 028°32'511.0
2017-Oct-31 10:01N 39°23' W 028°26'510.7
2017-Oct-31 09:30N 39°26' W 028°20'810.7
2017-Oct-31 08:46N 39°31' W 028°12'310.9
2017-Oct-31 08:29N 39°32' W 028°08'611.7
2017-Oct-31 08:00N 39°35' W 028°02'1812.1
2017-Oct-31 06:29N 39°45' W 027°42'611.9
2017-Oct-31 05:59N 39°48' W 027°35'50211.3
2017-Oct-29 09:39N 44°17' W 018°04'2012.1
2017-Oct-29 07:59N 44°28' W 017°41'2212.5
2017-Oct-29 06:13N 44°40' W 017°15'48412.1
2017-Oct-27 14:13N 48°59' W 007°18'8012.7
2017-Oct-27 07:52N 49°41' W 005°33'512.2
2017-Oct-27 07:25N 49°44' W 005°26'712.3
2017-Oct-27 06:53N 49°48' W 005°17'512.4
2017-Oct-27 06:29N 49°51' W 005°11'712.5
2017-Oct-27 05:56N 49°55' W 005°02'512.2
2017-Oct-27 05:29N 49°60' W 004°59'511.2
2017-Oct-27 05:00N 50°05' W 005°00'3 2.1
2017-Oct-27 03:34N 50°08' W 005°03'0 0.1
2017-Oct-27 03:28N 50°08' W 005°03'0 0.0
2017-Oct-27 02:55N 50°08' W 005°03'0 0.0
2017-Oct-27 02:22N 50°08' W 005°03'0 0.0
2017-Oct-27 01:46N 50°08' W 005°03'0 0.0
2017-Oct-27 01:28N 50°08' W 005°03'0 0.0
2017-Oct-27 00:49N 50°08' W 005°03'0 0.0
2017-Oct-27 00:28N 50°08' W 005°03'0 0.0
2017-Oct-26 23:58N 50°08' W 005°03'0 0.0
2017-Oct-26 23:28N 50°08' W 005°03'0 0.1
2017-Oct-26 22:55N 50°08' W 005°03'0 0.0
2017-Oct-26 15:10N 50°08' W 005°03'0 0.9
2017-Oct-26 15:00N 50°07' W 005°03'3 6.6
2017-Oct-26 14:30N 50°05' W 005°00'3 5.5
2017-Oct-26 14:00N 50°02' W 004°58'5 9.2
2017-Oct-26 13:30N 49°58' W 004°57'612.2
2017-Oct-26 13:00N 49°53' W 005°03'712.2
2017-Oct-26 12:28N 49°49' W 005°11'612.8
2017-Oct-26 12:00N 49°49' W 005°20'712.9
2017-Oct-26 11:27N 49°49' W 005°31'813.1
2017-Oct-26 10:50N 49°49' W 005°44'513.3
2017-Oct-26 10:30N 49°51' W 005°50'613.3
2017-Oct-26 10:00N 49°54' W 005°59'811.5
2017-Oct-26 09:21N 50°01' W 006°02'512.4
2017-Oct-26 08:58N 50°06' W 006°02'511.7
2017-Oct-26 08:30N 50°11' W 006°02'611.4
2017-Oct-26 07:59N 50°17' W 006°01'511.2
2017-Oct-26 07:30N 50°23' W 006°01'610.3
2017-Oct-26 06:57N 50°28' W 005°59'511.0
2017-Oct-26 06:29N 50°32' W 005°54'510.9
2017-Oct-26 06:00N 50°36' W 005°48'611.0
2017-Oct-26 05:30N 50°40' W 005°42'611.2
2017-Oct-26 05:00N 50°44' W 005°36'611.4
2017-Oct-26 04:30N 50°48' W 005°30'611.4
2017-Oct-26 04:00N 50°53' W 005°24'611.4
2017-Oct-26 03:30N 50°57' W 005°18'611.5
2017-Oct-26 03:00N 51°01' W 005°12'612.0
2017-Oct-26 02:30N 51°06' W 005°06'612.2
2017-Oct-26 02:00N 51°10' W 004°59'612.8
2017-Oct-26 01:30N 51°15' W 004°52'612.8
2017-Oct-26 01:00N 51°19' W 004°44'713.6
2017-Oct-26 00:30N 51°21' W 004°34'713.6
2017-Oct-26 00:00N 51°24' W 004°24'1113.7
2017-Oct-25 23:14N 51°28' W 004°09'313.3
2017-Oct-25 22:59N 51°29' W 004°03'511.4
2017-Oct-25 22:30N 51°31' W 003°55'5 8.7
2017-Oct-25 21:59N 51°34' W 003°50'1 2.4
2017-Oct-25 21:28N 51°34' W 003°48'0 0.0
2017-Oct-25 20:58N 51°34' W 003°48'0 0.0
2017-Oct-25 20:25N 51°34' W 003°48'0 0.0
2017-Oct-25 19:58N 51°34' W 003°48'0 0.0
2017-Oct-25 19:25N 51°34' W 003°48'0 0.0
2017-Oct-25 18:52N 51°34' W 003°48'0 0.0
2017-Oct-25 18:13N 51°34' W 003°48'0 0.0
2017-Oct-25 17:40N 51°34' W 003°48'0 0.0
2017-Oct-25 17:28N 51°34' W 003°48'0 0.0
2017-Oct-25 16:55N 51°34' W 003°48'0 0.0
2017-Oct-25 16:28N 51°34' W 003°48'0 0.0
2017-Oct-25 14:31N 51°34' W 003°48'0 0.0
2017-Oct-25 14:13N 51°34' W 003°48'0 0.0
2017-Oct-25 13:49N 51°34' W 003°48'0 0.0
2017-Oct-25 13:28N 51°34' W 003°48'0 0.0
2017-Oct-25 11:25N 51°34' W 003°48'0 0.0
2017-Oct-25 08:28N 51°34' W 003°48'0 0.0
2017-Oct-25 07:52N 51°34' W 003°48'0 0.0
2017-Oct-25 07:25N 51°34' W 003°48'0 0.0
2017-Oct-25 06:58N 51°34' W 003°48'0 0.0
2017-Oct-25 06:28N 51°34' W 003°48'0 0.0
2017-Oct-24 03:07N 51°34' W 003°48'0 0.0
2017-Oct-24 02:52N 51°34' W 003°48'0 0.0
2017-Oct-24 02:13N 51°34' W 003°48'0 0.0
2017-Oct-24 02:01N 51°34' W 003°48'0 0.0
2017-Oct-24 01:28N 51°34' W 003°48'0 0.0
2017-Oct-24 00:58N 51°34' W 003°48'0 0.0
2017-Oct-24 00:31N 51°34' W 003°48'0 0.0
2017-Oct-24 00:01N 51°34' W 003°48'0 0.0
2017-Oct-23 23:13N 51°34' W 003°48'0 0.0
2017-Oct-23 22:55N 51°34' W 003°48'0 0.0
2017-Oct-23 22:28N 51°34' W 003°48'4 0.9
2017-Oct-23 18:24N 51°33' W 003°53'3 6.3
2017-Oct-23 18:00N 51°31' W 003°56'4 7.8
2017-Oct-23 17:30N 51°29' W 004°02'4 7.2
2017-Oct-23 17:00N 51°29' W 004°07'2 4.4
2017-Oct-23 16:30N 51°28' W 004°10'0 0.6
2017-Oct-23 15:59N 51°28' W 004°11'1610.7
2017-Oct-23 14:29N 51°24' W 004°36'610.9
2017-Oct-23 13:57N 51°22' W 004°45'510.5
2017-Oct-23 13:30N 51°21' W 004°52'510.1
2017-Oct-23 13:00N 51°21' W 005°00'5 9.9
2017-Oct-23 12:30N 51°20' W 005°08'5 9.9
2017-Oct-23 12:00N 51°19' W 005°16'2810.0
2017-Oct-23 09:10N 51°16' W 006°01'210.8
2017-Oct-23 08:59N 51°15' W 006°04'510.9
2017-Oct-23 08:29N 51°15' W 006°13'6911.7
2017-Oct-23 02:35N 51°06' W 008°02'6611.1
2017-Oct-22 20:38N 51°05' W 009°48'211.7
2017-Oct-22 20:30N 51°05' W 009°50'  
Track history (hours):
 
Tides and Currents Weather Stations Pressure Air Temp Water Temp Dewpoint Dewpoint Depression Visibility Wind Speed Wind Dir Waves Ship Positions

Yangze 10

Last reported at 2017-Oct-31 21:20 UTC. Time now 2017-Nov-20 07:57 UTC.
Position N 38°14' W 030°26'.
Warning: this ship's position is 19 days out of date.

Length 229 m; draft 8.8 m.

Type: Cargo ship. MMSI: 636017533.

Date/timePositionNaut miles runAvg speedWind from/ knotsBaromVisibWave heightAir tempDewpointWater temp
2017-Oct-31 21:20N 38°14' W 030°26'310.2
2017-Oct-31 21:00N 38°16' W 030°23'510.3
2017-Oct-31 20:30N 38°19' W 030°18'510.3
2017-Oct-31 20:01N 38°23' W 030°13'510.0
2017-Oct-31 19:30N 38°26' W 030°08'5 9.9
2017-Oct-31 19:00N 38°29' W 030°03'5 9.8
2017-Oct-31 18:29N 38°32' W 029°58'5 9.9
2017-Oct-31 18:00N 38°36' W 029°53'510.1
2017-Oct-31 17:30N 38°39' W 029°49'5 9.9
2017-Oct-31 17:01N 38°42' W 029°44'5 9.9
2017-Oct-31 16:30N 38°45' W 029°39'510.1
2017-Oct-31 16:00N 38°48' W 029°34'510.2
2017-Oct-31 15:30N 38°52' W 029°29'510.1
2017-Oct-31 15:00N 38°55' W 029°23'510.0
2017-Oct-31 14:30N 38°58' W 029°18'510.0
2017-Oct-31 14:00N 39°00' W 029°13'510.0
2017-Oct-31 13:30N 39°03' W 029°08'510.1
2017-Oct-31 13:00N 39°06' W 029°02'510.8
2017-Oct-31 12:31N 39°09' W 028°56'611.0
2017-Oct-31 12:00N 39°12' W 028°50'611.1
2017-Oct-31 11:30N 39°15' W 028°44'611.1
2017-Oct-31 11:00N 39°18' W 028°38'611.0
2017-Oct-31 10:30N 39°21' W 028°32'511.0
2017-Oct-31 10:01N 39°23' W 028°26'510.7
2017-Oct-31 09:30N 39°26' W 028°20'810.7
2017-Oct-31 08:46N 39°31' W 028°12'310.9
2017-Oct-31 08:29N 39°32' W 028°08'611.7
2017-Oct-31 08:00N 39°35' W 028°02'1812.1
2017-Oct-31 06:29N 39°45' W 027°42'611.9
2017-Oct-31 05:59N 39°48' W 027°35'50211.3
2017-Oct-29 09:39N 44°17' W 018°04'2012.1
2017-Oct-29 07:59N 44°28' W 017°41'2212.5
2017-Oct-29 06:13N 44°40' W 017°15'48412.1
2017-Oct-27 14:13N 48°59' W 007°18'8012.7
2017-Oct-27 07:52N 49°41' W 005°33'512.2
2017-Oct-27 07:25N 49°44' W 005°26'712.3
2017-Oct-27 06:53N 49°48' W 005°17'512.4
2017-Oct-27 06:29N 49°51' W 005°11'712.5
2017-Oct-27 05:56N 49°55' W 005°02'512.2
2017-Oct-27 05:29N 49°60' W 004°59'511.2
2017-Oct-27 05:00N 50°05' W 005°00'3 2.1
2017-Oct-27 03:34N 50°08' W 005°03'0 0.1
2017-Oct-27 03:28N 50°08' W 005°03'0 0.0
2017-Oct-27 02:55N 50°08' W 005°03'0 0.0
2017-Oct-27 02:22N 50°08' W 005°03'0 0.0
2017-Oct-27 01:46N 50°08' W 005°03'0 0.0
2017-Oct-27 01:28N 50°08' W 005°03'0 0.0
2017-Oct-27 00:49N 50°08' W 005°03'0 0.0
2017-Oct-27 00:28N 50°08' W 005°03'0 0.0
2017-Oct-26 23:58N 50°08' W 005°03'0 0.0
2017-Oct-26 23:28N 50°08' W 005°03'0 0.1
2017-Oct-26 22:55N 50°08' W 005°03'0 0.0
2017-Oct-26 15:10N 50°08' W 005°03'0 0.9
2017-Oct-26 15:00N 50°07' W 005°03'3 6.6
2017-Oct-26 14:30N 50°05' W 005°00'3 5.5
2017-Oct-26 14:00N 50°02' W 004°58'5 9.2
2017-Oct-26 13:30N 49°58' W 004°57'612.2
2017-Oct-26 13:00N 49°53' W 005°03'712.2
2017-Oct-26 12:28N 49°49' W 005°11'612.8
2017-Oct-26 12:00N 49°49' W 005°20'712.9
2017-Oct-26 11:27N 49°49' W 005°31'813.1
2017-Oct-26 10:50N 49°49' W 005°44'513.3
2017-Oct-26 10:30N 49°51' W 005°50'613.3
2017-Oct-26 10:00N 49°54' W 005°59'811.5
2017-Oct-26 09:21N 50°01' W 006°02'512.4
2017-Oct-26 08:58N 50°06' W 006°02'511.7
2017-Oct-26 08:30N 50°11' W 006°02'611.4
2017-Oct-26 07:59N 50°17' W 006°01'511.2
2017-Oct-26 07:30N 50°23' W 006°01'610.3
2017-Oct-26 06:57N 50°28' W 005°59'511.0
2017-Oct-26 06:29N 50°32' W 005°54'510.9
2017-Oct-26 06:00N 50°36' W 005°48'611.0
2017-Oct-26 05:30N 50°40' W 005°42'611.2
2017-Oct-26 05:00N 50°44' W 005°36'611.4
2017-Oct-26 04:30N 50°48' W 005°30'611.4
2017-Oct-26 04:00N 50°53' W 005°24'611.4
2017-Oct-26 03:30N 50°57' W 005°18'611.5
2017-Oct-26 03:00N 51°01' W 005°12'612.0
2017-Oct-26 02:30N 51°06' W 005°06'612.2
2017-Oct-26 02:00N 51°10' W 004°59'612.8
2017-Oct-26 01:30N 51°15' W 004°52'612.8
2017-Oct-26 01:00N 51°19' W 004°44'713.6
2017-Oct-26 00:30N 51°21' W 004°34'713.6
2017-Oct-26 00:00N 51°24' W 004°24'1113.7
2017-Oct-25 23:14N 51°28' W 004°09'313.3
2017-Oct-25 22:59N 51°29' W 004°03'511.4
2017-Oct-25 22:30N 51°31' W 003°55'5 8.7
2017-Oct-25 21:59N 51°34' W 003°50'1 2.4
2017-Oct-25 21:28N 51°34' W 003°48'0 0.0
2017-Oct-25 20:58N 51°34' W 003°48'0 0.0
2017-Oct-25 20:25N 51°34' W 003°48'0 0.0
2017-Oct-25 19:58N 51°34' W 003°48'0 0.0
2017-Oct-25 19:25N 51°34' W 003°48'0 0.0
2017-Oct-25 18:52N 51°34' W 003°48'0 0.0
2017-Oct-25 18:13N 51°34' W 003°48'0 0.0
2017-Oct-25 17:40N 51°34' W 003°48'0 0.0
2017-Oct-25 17:28N 51°34' W 003°48'0 0.0
2017-Oct-25 16:55N 51°34' W 003°48'0 0.0
2017-Oct-25 16:28N 51°34' W 003°48'0 0.0
2017-Oct-25 14:31N 51°34' W 003°48'0 0.0
2017-Oct-25 14:13N 51°34' W 003°48'0 0.0
2017-Oct-25 13:49N 51°34' W 003°48'0 0.0
2017-Oct-25 13:28N 51°34' W 003°48'0 0.0
2017-Oct-25 11:25N 51°34' W 003°48'0 0.0
2017-Oct-25 08:28N 51°34' W 003°48'0 0.0
2017-Oct-25 07:52N 51°34' W 003°48'0 0.0
2017-Oct-25 07:25N 51°34' W 003°48'0 0.0
2017-Oct-25 06:58N 51°34' W 003°48'0 0.0
2017-Oct-25 06:28N 51°34' W 003°48'0 0.0
2017-Oct-24 03:07N 51°34' W 003°48'0 0.0
2017-Oct-24 02:52N 51°34' W 003°48'0 0.0
2017-Oct-24 02:13N 51°34' W 003°48'0 0.0
2017-Oct-24 02:01N 51°34' W 003°48'0 0.0
2017-Oct-24 01:28N 51°34' W 003°48'0 0.0
2017-Oct-24 00:58N 51°34' W 003°48'0 0.0
2017-Oct-24 00:31N 51°34' W 003°48'0 0.0
2017-Oct-24 00:01N 51°34' W 003°48'0 0.0
2017-Oct-23 23:13N 51°34' W 003°48'0 0.0
2017-Oct-23 22:55N 51°34' W 003°48'0 0.0
2017-Oct-23 22:28N 51°34' W 003°48'4 0.9
2017-Oct-23 18:24N 51°33' W 003°53'3 6.3
2017-Oct-23 18:00N 51°31' W 003°56'4 7.8
2017-Oct-23 17:30N 51°29' W 004°02'4 7.2
2017-Oct-23 17:00N 51°29' W 004°07'2 4.4
2017-Oct-23 16:30N 51°28' W 004°10'0 0.6
2017-Oct-23 15:59N 51°28' W 004°11'1610.7
2017-Oct-23 14:29N 51°24' W 004°36'610.9
2017-Oct-23 13:57N 51°22' W 004°45'510.5
2017-Oct-23 13:30N 51°21' W 004°52'510.1
2017-Oct-23 13:00N 51°21' W 005°00'5 9.9
2017-Oct-23 12:30N 51°20' W 005°08'5 9.9
2017-Oct-23 12:00N 51°19' W 005°16'2810.0
2017-Oct-23 09:10N 51°16' W 006°01'210.8
2017-Oct-23 08:59N 51°15' W 006°04'510.9
2017-Oct-23 08:29N 51°15' W 006°13'6911.7
2017-Oct-23 02:35N 51°06' W 008°02'6611.1
2017-Oct-22 20:38N 51°05' W 009°48'211.7
2017-Oct-22 20:30N 51°05' W 009°50'  

Dump ship's entire track history